Time;durP1;ratioP1;P1;durP2;ratioP2;P2;SDS_P1;SDS_P2;PMS_P1;PMS_P2;Temp;Humidity;BMP_temperature;BMP_pressure;BME280_temperature;BME280_humidity;BME280_pressure;Samples;Min_cycle;Max_cycle;Signal;HPM_P1;HPM_P2
2023/03/03 00:02:01;;;;;;;23.23;11.35;;;;;;;5.65;67.97;102680.81;5021840;28;20037;-39
2023/03/03 00:04:26;;;;;;;25.15;11.23;;;;;;;5.56;68.16;102691.50;5007581;28;20037;-39
2023/03/03 00:06:51;;;;;;;22.98;11.73;;;;;;;5.39;68.47;102683.47;5021460;28;20025;-40
2023/03/03 00:09:17;;;;;;;26.45;11.65;;;;;;;5.49;68.40;102686.72;5024494;28;20423;-39
2023/03/03 00:11:44;;;;;;;23.42;11.82;;;;;;;5.35;68.69;102689.25;5022936;28;20069;-38
2023/03/03 00:14:28;;;;;;;22.33;11.43;;;;;;;5.42;68.37;102694.94;5027186;28;20032;-39
2023/03/03 00:16:54;;;;;;;23.95;11.27;;;;;;;5.41;68.16;102685.38;5018846;28;20096;-38
2023/03/03 00:19:20;;;;;;;23.77;11.98;;;;;;;5.34;68.63;102693.53;5026441;28;20026;-39
2023/03/03 00:21:48;;;;;;;23.70;11.57;;;;;;;5.30;68.03;102691.56;5005499;28;20037;-39
2023/03/03 00:24:13;;;;;;;22.08;11.40;;;;;;;5.12;68.54;102692.97;5027014;28;20038;-41
2023/03/03 00:26:59;;;;;;;25.35;11.93;;;;;;;5.24;68.49;102699.81;5022870;28;20025;-46
2023/03/03 00:29:30;;;;;;;28.40;12.32;;;;;;;5.23;68.89;102692.88;5029574;28;20415;-40
2023/03/03 00:32:20;;;;;;;22.42;11.13;;;;;;;5.22;68.47;102701.41;5026558;28;20454;-39
2023/03/03 00:34:46;;;;;;;25.65;11.93;;;;;;;5.23;69.05;102697.13;5025433;28;20522;-41
2023/03/03 00:37:28;;;;;;;24.85;12.30;;;;;;;5.29;68.70;102703.59;5014746;28;20042;-43
2023/03/03 00:40:01;;;;;;;29.67;12.40;;;;;;;5.28;69.55;102693.16;5009086;28;20041;-39
2023/03/03 00:42:27;;;;;;;27.55;12.35;;;;;;;5.39;68.74;102696.41;5031824;28;20035;-41
2023/03/03 00:44:57;;;;;;;27.23;12.30;;;;;;;5.31;68.20;102691.63;5030930;28;20083;-40
2023/03/03 00:47:31;;;;;;;24.65;12.23;;;;;;;5.32;69.02;102697.69;5028534;28;20097;-38
2023/03/03 00:50:05;;;;;;;28.90;12.45;;;;;;;5.31;68.84;102701.97;5028118;28;20584;-38
2023/03/03 00:52:36;;;;;;;20.95;11.23;;;;;;;5.30;69.34;102702.81;5031153;28;20503;-37
2023/03/03 00:55:02;;;;;;;25.05;11.30;;;;;;;5.41;68.69;102703.47;5027831;28;20029;-41
2023/03/03 00:57:28;;;;;;;22.90;11.60;;;;;;;5.41;69.29;102697.41;5031264;28;20053;-41
2023/03/03 00:59:53;;;;;;;24.60;11.52;;;;;;;5.31;69.08;102691.63;5027485;28;20139;-38
2023/03/03 01:02:19;;;;;;;21.55;10.40;;;;;;;5.29;69.38;102693.25;5030453;28;20033;-40
2023/03/03 01:04:49;;;;;;;25.08;10.90;;;;;;;5.29;69.40;102698.44;5027176;28;20087;-38
2023/03/03 01:07:15;;;;;;;23.70;10.95;;;;;;;5.38;69.59;102699.78;5030626;28;20087;-40
2023/03/03 01:09:41;;;;;;;24.75;10.43;;;;;;;5.37;69.29;102701.47;5009085;28;20037;-39
2023/03/03 01:12:06;;;;;;;25.33;10.80;;;;;;;5.45;69.24;102691.63;5030036;28;20458;-40
2023/03/03 01:14:31;;;;;;;20.38;10.05;;;;;;;5.42;69.50;102694.03;5029813;28;20030;-39
2023/03/03 01:16:57;;;;;;;21.95;10.35;;;;;;;5.45;69.30;102692.50;5026274;28;20059;-41
2023/03/03 01:19:22;;;;;;;20.13;10.27;;;;;;;5.44;69.03;102695.91;5029509;28;20467;-39
2023/03/03 01:21:48;;;;;;;21.70;10.48;;;;;;;5.37;69.79;102698.88;5025787;28;20511;-41
2023/03/03 01:24:13;;;;;;;20.23;10.63;;;;;;;5.50;69.20;102700.56;5029426;28;20038;-49
2023/03/03 01:26:38;;;;;;;22.38;10.23;;;;;;;5.34;69.68;102695.22;5029445;28;20094;-38
2023/03/03 01:29:04;;;;;;;21.13;10.10;;;;;;;5.28;69.80;102699.22;5025700;28;20063;-39
2023/03/03 01:31:29;;;;;;;20.50;9.75;;;;;;;5.27;69.45;102704.28;5029769;28;20068;-38
2023/03/03 01:33:54;;;;;;;18.98;9.63;;;;;;;5.34;69.43;102702.97;5025373;28;20033;-39
2023/03/03 01:36:24;;;;;;;21.63;9.18;;;;;;;5.33;69.17;102694.31;5030176;28;20040;-38
2023/03/03 01:38:49;;;;;;;18.48;8.90;;;;;;;5.32;69.05;102701.19;5026473;28;20041;-38
2023/03/03 01:41:15;;;;;;;17.67;9.05;;;;;;;5.21;69.20;102699.63;5030298;28;20037;-38
2023/03/03 01:43:46;;;;;;;21.20;9.13;;;;;;;5.26;69.36;102702.50;5025576;28;20446;-38
2023/03/03 01:46:40;;;;;;;18.95;9.23;;;;;;;5.26;69.31;102705.06;5029354;28;20036;-39
2023/03/03 01:49:21;;;;;;;17.05;8.68;;;;;;;5.10;69.76;102697.16;5025795;28;20049;-39
2023/03/03 01:51:51;;;;;;;20.92;9.18;;;;;;;5.12;69.15;102698.16;5006954;28;20087;-40
2023/03/03 01:54:22;;;;;;;18.23;9.63;;;;;;;5.10;69.29;102694.56;5030308;28;20041;-38
2023/03/03 01:56:49;;;;;;;14.77;8.68;;;;;;;5.21;69.05;102702.19;5024566;28;20144;-39
2023/03/03 01:59:22;;;;;;;14.52;8.80;;;;;;;5.20;69.40;102700.41;5027637;28;20038;-39
2023/03/03 02:01:48;;;;;;;18.73;8.40;;;;;;;5.23;69.03;102699.72;5026004;28;20060;-39
2023/03/03 02:04:14;;;;;;;16.63;8.52;;;;;;;5.18;68.75;102702.03;5032055;28;20581;-39
2023/03/03 02:06:46;;;;;;;15.25;8.00;;;;;;;5.15;68.83;102694.06;5032154;28;20029;-39
2023/03/03 02:09:24;;;;;;;15.90;8.18;;;;;;;5.12;68.69;102700.72;5026890;28;20048;-40
2023/03/03 02:11:53;;;;;;;16.35;7.85;;;;;;;5.20;69.12;102692.66;5023695;28;20045;-41
2023/03/03 02:14:19;;;;;;;15.02;8.07;;;;;;;5.16;69.06;102695.84;5026793;28;20049;-39
2023/03/03 02:16:44;;;;;;;15.75;7.75;;;;;;;5.03;69.51;102688.09;5022216;28;20124;-39
2023/03/03 02:19:27;;;;;;;15.85;8.32;;;;;;;5.18;69.55;102690.78;5026658;28;20038;-39
2023/03/03 02:21:52;;;;;;;15.80;8.65;;;;;;;5.16;68.78;102690.69;5022889;28;20136;-39
2023/03/03 02:24:26;;;;;;;15.48;8.05;;;;;;;5.25;69.20;102691.25;5027690;28;20041;-39
2023/03/03 02:26:52;;;;;;;13.90;8.15;;;;;;;5.30;68.74;102695.03;5026832;28;20535;-39
2023/03/03 02:29:17;;;;;;;16.58;8.15;;;;;;;5.15;68.79;102696.63;5030633;28;20025;-38
2023/03/03 02:31:42;;;;;;;16.65;7.78;;;;;;;5.20;68.99;102690.06;5025157;28;20052;-39
2023/03/03 02:34:08;;;;;;;15.93;8.18;;;;;;;5.20;68.55;102695.25;5031060;28;20045;-39
2023/03/03 02:36:36;;;;;;;15.07;8.15;;;;;;;5.28;68.34;102691.47;5027912;28;20447;-40
2023/03/03 02:39:15;;;;;;;15.75;8.30;;;;;;;5.19;68.41;102690.84;5023209;28;20048;-37
2023/03/03 02:42:01;;;;;;;17.23;8.68;;;;;;;5.12;68.93;102687.81;5028456;28;20033;-39
2023/03/03 02:44:29;;;;;;;15.40;8.02;;;;;;;5.05;68.69;102683.94;5021339;28;20029;-41
2023/03/03 02:46:56;;;;;;;15.65;8.02;;;;;;;4.98;68.77;102686.91;5032413;28;20148;-39
2023/03/03 02:49:27;;;;;;;15.65;8.35;;;;;;;5.06;68.65;102679.66;5036499;28;20053;-38
2023/03/03 02:51:54;;;;;;;18.92;8.85;;;;;;;5.09;68.42;102680.72;5030651;28;20037;-40
2023/03/03 02:54:22;;;;;;;18.98;8.13;;;;;;;5.09;68.57;102675.56;5031289;28;20499;-40
2023/03/03 02:56:47;;;;;;;15.60;8.23;;;;;;;4.98;68.62;102671.41;5028696;28;20523;-39
2023/03/03 02:59:14;;;;;;;17.67;8.20;;;;;;;5.03;68.82;102680.34;5031039;28;20052;-39
2023/03/03 03:01:40;;;;;;;14.25;7.57;;;;;;;5.01;68.57;102679.34;5027731;28;20030;-38
2023/03/03 03:04:13;;;;;;;15.52;7.88;;;;;;;4.95;68.81;102683.22;5031934;28;20031;-41
2023/03/03 03:06:39;;;;;;;15.40;8.05;;;;;;;5.01;68.53;102686.19;5030980;28;20466;-39
2023/03/03 03:09:07;;;;;;;17.40;7.95;;;;;;;4.97;68.79;102685.13;5028815;28;20458;-39
2023/03/03 03:11:37;;;;;;;15.85;8.05;;;;;;;5.05;68.75;102683.03;5030568;28;20040;-39
2023/03/03 03:14:04;;;;;;;20.15;8.00;;;;;;;4.94;69.16;102686.63;5028506;28;20360;-39
2023/03/03 03:16:30;;;;;;;15.32;8.23;;;;;;;5.05;69.18;102685.63;5031369;28;20025;-41
2023/03/03 03:18:56;;;;;;;18.13;8.13;;;;;;;5.00;68.77;102690.47;5027584;28;20036;-38
2023/03/03 03:21:21;;;;;;;17.23;8.30;;;;;;;5.01;68.61;102681.91;5031368;28;20056;-40
2023/03/03 03:23:47;;;;;;;14.57;7.60;;;;;;;5.02;68.25;102686.31;5027318;28;20029;-39
2023/03/03 03:26:12;;;;;;;14.82;7.60;;;;;;;5.01;68.36;102691.38;5031247;28;20116;-38
2023/03/03 03:28:38;;;;;;;15.77;8.23;;;;;;;4.99;68.14;102680.06;5030445;28;20136;-44
2023/03/03 03:31:05;;;;;;;16.52;7.85;;;;;;;4.98;68.32;102697.25;5028664;28;20060;-42
2023/03/03 03:33:31;;;;;;;17.58;7.75;;;;;;;4.90;67.89;102694.16;5031313;28;20041;-39
2023/03/03 03:35:57;;;;;;;14.35;7.50;;;;;;;4.93;68.20;102698.66;5027518;28;20030;-40
2023/03/03 03:38:24;;;;;;;15.52;7.60;;;;;;;4.92;67.95;102696.84;5031027;28;20064;-39
2023/03/03 03:40:50;;;;;;;17.67;7.70;;;;;;;4.89;67.95;102706.97;5027239;28;20069;-42
2023/03/03 03:43:15;;;;;;;17.10;8.88;;;;;;;4.76;69.47;102701.78;5032111;28;20030;-40
2023/03/03 03:45:44;;;;;;;13.98;8.55;;;;;;;4.87;68.96;102709.47;5026645;28;20528;-44
2023/03/03 03:48:10;;;;;;;17.52;8.90;;;;;;;4.81;70.02;102709.09;5028166;28;20029;-39
2023/03/03 03:50:35;;;;;;;20.50;9.75;;;;;;;4.76;71.21;102709.53;5027473;28;20042;-38
2023/03/03 03:53:01;;;;;;;20.70;10.75;;;;;;;5.06;70.76;102705.50;5005279;28;20124;-39
2023/03/03 03:55:26;;;;;;;20.90;10.05;;;;;;;5.25;70.43;102704.19;5026118;28;20496;-40
2023/03/03 03:57:52;;;;;;;20.23;10.73;;;;;;;5.25;70.70;102711.94;5022536;28;20435;-38
2023/03/03 04:00:17;;;;;;;24.85;11.32;;;;;;;5.41;70.68;102713.81;5024211;28;20091;-40
2023/03/03 04:02:42;;;;;;;21.88;11.13;;;;;;;5.53;70.21;102718.88;5021192;28;20068;-40
2023/03/03 04:05:08;;;;;;;26.27;11.88;;;;;;;5.08;72.10;102709.06;5028816;28;20358;-38
2023/03/03 04:07:34;;;;;;;26.05;11.65;;;;;;;5.45;71.55;102709.72;5026639;28;20045;-39
2023/03/03 04:09:59;;;;;;;31.77;12.30;;;;;;;5.44;71.83;102711.41;5024416;28;20041;-40
2023/03/03 04:12:25;;;;;;;28.27;11.90;;;;;;;5.50;71.26;102713.50;5028824;28;20037;-39
2023/03/03 04:14:50;;;;;;;27.73;12.48;;;;;;;5.67;71.57;102718.91;5026114;28;20103;-40
2023/03/03 04:17:19;;;;;;;27.48;12.13;;;;;;;5.58;71.40;102720.06;5028674;28;20029;-41
2023/03/03 04:19:45;;;;;;;25.63;12.00;;;;;;;5.83;71.26;102720.78;5027590;28;20454;-39
2023/03/03 04:22:12;;;;;;;29.77;12.30;;;;;;;5.82;70.69;102719.00;5031346;28;20479;-38
2023/03/03 04:24:38;;;;;;;27.92;12.63;;;;;;;5.73;71.62;102724.47;5031779;28;20099;-39
2023/03/03 04:27:03;;;;;;;28.45;13.00;;;;;;;5.59;72.20;102727.91;5028530;28;20037;-39
2023/03/03 04:29:29;;;;;;;25.30;12.45;;;;;;;5.64;71.93;102721.34;5033068;28;20056;-42
2023/03/03 04:31:54;;;;;;;31.83;12.85;;;;;;;5.99;71.19;102720.06;5026460;28;20057;-40
2023/03/03 04:34:19;;;;;;;28.77;12.45;;;;;;;6.08;70.80;102721.53;5028292;28;20507;-41
2023/03/03 04:36:45;;;;;;;23.52;11.88;;;;;;;5.70;71.63;102721.72;5021570;28;20033;-39
2023/03/03 04:39:11;;;;;;;25.50;12.15;;;;;;;5.59;72.10;102721.84;5025872;28;20033;-39
2023/03/03 04:41:36;;;;;;;25.95;12.50;;;;;;;5.80;72.62;102720.56;5025578;28;20041;-39
2023/03/03 04:44:02;;;;;;;25.27;13.02;;;;;;;6.04;71.63;102718.63;5006233;28;20029;-39
2023/03/03 04:46:27;;;;;;;22.95;12.05;;;;;;;5.92;71.66;102720.47;5028753;28;20518;-38
2023/03/03 04:48:52;;;;;;;27.50;12.48;;;;;;;6.17;71.11;102716.00;5024415;28;20025;-39
2023/03/03 04:51:18;;;;;;;24.67;12.52;;;;;;;6.26;71.12;102721.75;5030818;28;20037;-41
2023/03/03 04:53:43;;;;;;;26.17;12.27;;;;;;;6.20;70.90;102720.47;5026611;28;20029;-43
2023/03/03 04:56:08;;;;;;;25.75;12.55;;;;;;;6.32;70.50;102721.22;5027848;28;20241;-40
2023/03/03 04:58:34;;;;;;;24.40;12.13;;;;;;;6.37;70.36;102730.13;5027516;28;20025;-38
2023/03/03 05:00:59;;;;;;;24.05;12.35;;;;;;;6.26;71.05;102726.91;5023824;28;20125;-40
2023/03/03 05:03:25;;;;;;;25.77;12.65;;;;;;;6.01;71.78;102731.41;5028932;28;20025;-38
2023/03/03 05:05:51;;;;;;;30.98;13.00;;;;;;;5.94;71.88;102724.97;5024443;28;20491;-42
2023/03/03 05:08:16;;;;;;;29.70;12.95;;;;;;;5.72;72.13;102737.34;5027683;28;20064;-43
2023/03/03 05:10:42;;;;;;;25.48;12.48;;;;;;;6.03;71.46;102735.88;5023311;28;20076;-41
2023/03/03 05:13:08;;;;;;;31.67;13.15;;;;;;;5.94;71.64;102730.13;5026720;28;20522;-38
2023/03/03 05:15:34;;;;;;;27.10;12.82;;;;;;;6.05;71.48;102731.69;5026439;28;20029;-39
2023/03/03 05:17:59;;;;;;;28.23;12.45;;;;;;;6.16;71.33;102728.88;5023311;28;20033;-39
2023/03/03 05:20:25;;;;;;;52.05;13.57;;;;;;;6.12;71.03;102730.34;5026935;28;20432;-40
2023/03/03 05:22:50;;;;;;;28.83;12.60;;;;;;;6.26;71.02;102737.28;5024008;28;20467;-40
2023/03/03 05:25:16;;;;;;;25.75;12.48;;;;;;;6.30;70.89;102730.56;5028929;28;20052;-41
2023/03/03 05:27:42;;;;;;;29.38;13.45;;;;;;;6.27;70.96;102731.31;5024813;28;20030;-41
2023/03/03 05:30:09;;;;;;;31.02;13.73;;;;;;;6.11;71.05;102734.63;5027588;28;20070;-40
2023/03/03 05:32:35;;;;;;;36.85;13.90;;;;;;;6.17;71.13;102730.63;5027449;28;20037;-40
2023/03/03 05:35:00;;;;;;;44.42;13.35;;;;;;;6.15;70.90;102733.16;5023611;28;20036;-39
2023/03/03 05:37:26;;;;;;;42.55;13.13;;;;;;;5.97;71.23;102729.44;5029466;28;20555;-38
2023/03/03 05:39:51;;;;;;;30.15;13.60;;;;;;;6.06;71.52;102730.88;5028643;28;20049;-39
2023/03/03 05:42:17;;;;;;;29.23;12.90;;;;;;;6.21;70.93;102723.16;5030795;28;20063;-39
2023/03/03 05:44:42;;;;;;;35.38;13.32;;;;;;;6.26;70.75;102732.09;5027071;28;20048;-41
2023/03/03 05:47:08;;;;;;;29.40;13.38;;;;;;;6.46;70.51;102728.13;5027910;28;20037;-38
2023/03/03 05:49:34;;;;;;;80.97;13.75;;;;;;;6.20;70.26;102726.56;5034173;28;20059;-40
2023/03/03 05:51:59;;;;;;;45.95;13.43;;;;;;;6.27;69.86;102730.41;5037840;28;20060;-41
2023/03/03 05:54:25;;;;;;;29.60;13.13;;;;;;;6.24;70.47;102722.44;5041476;28;20045;-41
2023/03/03 05:56:50;;;;;;;55.67;15.88;;;;;;;6.25;70.41;102719.94;5027981;28;20467;-40
2023/03/03 05:59:15;;;;;;;52.95;13.38;;;;;;;6.23;70.27;102731.00;5030155;28;20030;-41
2023/03/03 06:01:41;;;;;;;34.40;12.38;;;;;;;6.40;70.13;102727.75;5024656;28;20033;-42
2023/03/03 06:04:07;;;;;;;38.83;13.05;;;;;;;6.33;70.06;102729.09;5029221;28;20079;-41
2023/03/03 06:06:32;;;;;;;50.70;14.13;;;;;;;6.22;70.26;102731.84;5029255;28;20037;-39
2023/03/03 06:08:58;;;;;;;97.32;15.77;;;;;;;6.22;70.09;102732.69;5024752;28;20515;-39
2023/03/03 06:11:23;;;;;;;25.60;13.02;;;;;;;6.30;70.48;102736.66;5026603;28;20040;-39
2023/03/03 06:13:48;;;;;;;61.50;14.55;;;;;;;6.28;70.18;102738.25;5022309;28;20121;-37
2023/03/03 06:16:14;;;;;;;82.50;15.82;;;;;;;6.16;70.25;102742.69;5027684;28;20041;-39
2023/03/03 06:18:39;;;;;;;110.22;17.05;;;;;;;6.12;70.51;102745.91;5026689;28;20037;-39
2023/03/03 06:21:05;;;;;;;32.05;16.30;;;;;;;6.42;70.20;102745.16;5023419;28;20390;-39
2023/03/03 06:23:30;;;;;;;40.85;14.57;;;;;;;6.34;70.30;102753.28;5028472;28;20033;-39
2023/03/03 06:25:56;;;;;;;69.13;14.65;;;;;;;6.20;70.66;102744.69;5024689;28;20084;-38
2023/03/03 06:28:21;;;;;;;34.83;13.52;;;;;;;6.39;70.51;102759.63;5029271;28;20029;-39
2023/03/03 06:30:46;;;;;;;42.80;13.57;;;;;;;6.38;70.56;102750.06;5027226;28;20487;-38
2023/03/03 06:33:12;;;;;;;36.30;13.48;;;;;;;6.28;70.78;102750.34;5031466;28;20033;-39
2023/03/03 06:35:37;;;;;;;62.90;13.52;;;;;;;6.39;70.59;102757.94;5031425;28;20040;-38
2023/03/03 06:38:02;;;;;;;72.88;13.13;;;;;;;6.29;70.56;102757.28;5026293;28;20060;-38
2023/03/03 06:40:28;;;;;;;26.67;12.57;;;;;;;6.40;70.68;102759.69;5026603;28;20053;-38
2023/03/03 06:42:53;;;;;;;23.33;12.80;;;;;;;6.46;70.15;102752.28;5022235;28;20101;-38
2023/03/03 06:45:18;;;;;;;25.83;12.82;;;;;;;6.30;71.34;102766.84;5025778;28;20044;-37
2023/03/03 06:47:45;;;;;;;30.27;13.13;;;;;;;6.31;71.08;102761.75;5021520;28;20038;-39
2023/03/03 06:50:11;;;;;;;104.50;14.38;;;;;;;6.03;72.00;102763.47;5025689;28;20029;-39
2023/03/03 06:52:37;;;;;;;31.88;12.57;;;;;;;6.38;71.34;102769.09;5026504;28;20030;-41
2023/03/03 06:55:11;;;;;;;25.80;12.02;;;;;;;6.51;70.97;102771.63;5022502;28;20108;-41
2023/03/03 06:57:37;;;;;;;42.92;13.13;;;;;;;6.52;70.80;102767.34;5025574;28;20029;-40
2023/03/03 07:00:19;;;;;;;26.73;12.00;;;;;;;6.48;71.42;102775.72;5023579;28;20100;-40
2023/03/03 07:02:45;;;;;;;34.95;12.52;;;;;;;6.30;71.62;102779.78;5023603;28;20056;-38
2023/03/03 07:05:16;;;;;;;26.00;12.65;;;;;;;6.49;71.60;102781.00;5029236;28;20091;-39
2023/03/03 07:07:41;;;;;;;29.63;12.68;;;;;;;6.43;71.90;102783.22;5030485;28;20048;-39
2023/03/03 07:10:26;;;;;;;32.55;12.60;;;;;;;6.52;71.53;102780.31;5027033;28;20057;-39
2023/03/03 07:12:52;;;;;;;36.63;11.40;;;;;;;6.58;71.23;102783.25;5027651;28;20038;-39
2023/03/03 07:15:24;;;;;;;26.27;11.45;;;;;;;6.54;71.88;102786.44;5030680;28;20037;-39
2023/03/03 07:17:57;;;;;;;92.13;12.95;;;;;;;6.32;72.15;102789.44;5026385;28;20033;-40
2023/03/03 07:20:34;;;;;;;32.88;11.50;;;;;;;6.44;72.24;102790.19;5029276;28;20037;-36
2023/03/03 07:22:59;;;;;;;23.92;11.38;;;;;;;6.50;71.72;102795.75;5025812;28;20435;-40
2023/03/03 07:25:34;;;;;;;65.20;12.85;;;;;;;6.31;72.21;102795.44;5029151;28;20060;-39
2023/03/03 07:28:23;;;;;;;27.10;11.70;;;;;;;6.80;71.56;102788.00;5025317;28;20049;-38
2023/03/03 07:30:49;;;;;;;59.90;11.45;;;;;;;6.18;72.80;102797.16;5005557;28;20036;-38
2023/03/03 07:33:45;;;;;;;28.42;11.27;;;;;;;6.69;72.30;102800.34;5028413;28;20037;-38
2023/03/03 07:36:30;;;;;;;25.63;11.32;;;;;;;6.87;71.25;102805.72;5020421;28;20545;-41
2023/03/03 07:39:00;;;;;;;;;;;;;;;6.36;72.67;102806.06;5026377;28;20044;-39
2023/03/03 07:41:27;;;;;;;88.07;11.52;;;;;;;6.13;72.54;102804.66;5029600;28;19917;-39
2023/03/03 07:43:55;;;;;;;38.97;10.93;;;;;;;6.49;72.29;102809.50;5030141;28;20499;-41
2023/03/03 07:46:40;;;;;;;25.27;10.90;;;;;;;6.71;72.08;102814.25;5026611;28;20456;-41
2023/03/03 07:49:14;;;;;;;;;;;;;;;6.89;71.44;102810.16;5026534;28;20035;-39
2023/03/03 07:51:42;;;;;;;20.40;10.63;;;;;;;6.70;71.64;102817.69;5027371;28;20198;-40
2023/03/03 07:54:39;;;;;;;23.15;11.15;;;;;;;6.72;71.86;102821.25;5022383;28;20030;-40
2023/03/03 07:57:11;;;;;;;26.52;11.23;;;;;;;7.00;71.21;102817.72;5013449;28;20029;-41
2023/03/03 07:59:48;;;;;;;29.88;11.30;;;;;;;6.98;71.76;102815.00;5029566;28;20064;-40
2023/03/03 08:02:38;;;;;;;84.13;12.52;;;;;;;6.77;71.40;102816.34;5023952;28;20029;-39
2023/03/03 08:05:25;;;;;;;23.33;10.95;;;;;;;7.45;70.66;102825.53;5014609;28;20063;-39
2023/03/03 08:07:50;;;;;;;21.50;10.38;;;;;;;7.32;71.12;102823.03;5022840;28;20068;-42
2023/03/03 08:10:49;;;;;;;19.15;11.00;;;;;;;7.62;70.42;102822.19;5025909;28;20066;-38
2023/03/03 08:13:19;;;;;;;31.33;11.20;;;;;;;7.20;70.92;102827.53;5006827;28;20033;-41
2023/03/03 08:15:48;;;;;;;20.92;10.90;;;;;;;7.43;70.52;102821.97;5003842;28;20026;-39
2023/03/03 08:18:20;;;;;;;35.03;10.80;;;;;;;7.29;70.15;102836.75;5023975;28;20116;-40
2023/03/03 08:20:48;;;;;;;19.58;10.60;;;;;;;7.47;70.47;102836.00;5020607;28;20041;-40
2023/03/03 08:23:15;;;;;;;27.17;10.50;;;;;;;7.40;69.22;102844.25;5024422;28;20033;-40
2023/03/03 08:25:41;;;;;;;16.85;10.18;;;;;;;7.55;69.96;102848.63;5024692;28;20033;-39
2023/03/03 08:28:08;;;;;;;17.55;10.02;;;;;;;7.66;69.49;102846.63;5020227;28;20585;-40
2023/03/03 08:30:33;;;;;;;23.73;11.07;;;;;;;7.36;69.85;102847.47;5022471;28;20040;-38
2023/03/03 08:32:59;;;;;;;18.25;10.00;;;;;;;7.73;69.59;102851.38;5019323;28;20438;-39
2023/03/03 08:35:24;;;;;;;22.95;10.88;;;;;;;7.67;69.41;102869.19;5023437;28;20115;-39
2023/03/03 08:37:50;;;;;;;18.77;10.25;;;;;;;7.99;68.19;102858.88;5020122;28;20029;-39
2023/03/03 08:40:15;;;;;;;19.58;10.45;;;;;;;7.88;68.98;102861.69;5025245;28;20042;-37
2023/03/03 08:42:41;;;;;;;18.58;10.90;;;;;;;7.80;68.83;102853.50;5021385;28;20025;-39
2023/03/03 08:45:06;;;;;;;20.95;10.23;;;;;;;7.89;67.65;102864.38;5028401;28;20618;-40
2023/03/03 08:47:32;;;;;;;20.05;10.68;;;;;;;8.23;68.31;102856.75;5028671;28;20113;-39
2023/03/03 08:49:57;;;;;;;19.65;10.38;;;;;;;8.46;67.44;102856.31;5030063;28;20384;-40
2023/03/03 08:52:23;;;;;;;20.42;10.50;;;;;;;8.29;66.91;102862.28;5036210;28;20044;-42
2023/03/03 08:54:48;;;;;;;18.85;10.32;;;;;;;8.65;66.92;102868.59;5028764;28;20053;-39
2023/03/03 08:57:14;;;;;;;17.38;9.48;;;;;;;8.99;66.12;102870.34;5029017;28;20056;-39
2023/03/03 08:59:39;;;;;;;17.60;9.95;;;;;;;8.83;65.63;102868.66;5024567;28;20487;-42
2023/03/03 09:02:05;;;;;;;19.40;10.68;;;;;;;8.82;64.89;102869.47;5030130;28;20037;-42
2023/03/03 09:04:31;;;;;;;20.45;9.52;;;;;;;8.87;65.42;102866.28;5029048;28;20026;-39
2023/03/03 09:06:56;;;;;;;16.83;9.85;;;;;;;8.84;65.04;102863.50;5025864;28;20044;-39
2023/03/03 09:09:22;;;;;;;15.77;9.07;;;;;;;8.80;64.55;102858.97;5030839;28;20087;-40
2023/03/03 09:11:48;;;;;;;16.95;9.63;;;;;;;8.97;64.53;102867.66;5028090;28;20121;-40
2023/03/03 09:14:16;;;;;;;19.17;9.60;;;;;;;8.74;65.22;102862.97;5030224;28;20099;-39
2023/03/03 09:16:52;;;;;;;15.25;9.18;;;;;;;8.98;64.80;102865.94;5027328;28;20025;-39
2023/03/03 09:19:25;;;;;;;16.40;9.02;;;;;;;9.22;64.53;102859.38;5031895;28;20048;-39
2023/03/03 09:21:53;;;;;;;15.27;8.93;;;;;;;9.36;65.54;102860.97;5027838;28;20038;-39
2023/03/03 09:24:41;;;;;;;15.18;9.23;;;;;;;9.90;64.90;102856.66;5025184;28;20036;-40
2023/03/03 09:27:18;;;;;;;14.52;8.75;;;;;;;10.29;63.30;102862.88;5020446;28;20049;-39
2023/03/03 09:29:44;;;;;;;15.45;9.23;;;;;;;10.18;62.11;102865.00;5019590;28;20422;-39
2023/03/03 09:32:25;;;;;;;14.88;9.02;;;;;;;9.74;61.65;102857.66;5027416;28;20025;-44
2023/03/03 09:34:51;;;;;;;15.05;9.32;;;;;;;9.64;62.44;102868.41;5027793;28;20038;-40
2023/03/03 09:37:23;;;;;;;15.10;8.68;;;;;;;9.48;62.42;102861.59;5032317;28;20052;-39
2023/03/03 09:39:54;;;;;;;16.52;8.77;;;;;;;9.73;62.22;102866.28;5028207;28;20042;-39
2023/03/03 09:42:44;;;;;;;13.63;8.73;;;;;;;9.60;62.05;102863.91;5030919;28;20033;-40
2023/03/03 09:45:18;;;;;;;15.48;8.73;;;;;;;9.60;61.53;102866.50;5025772;28;20033;-40
2023/03/03 09:47:50;;;;;;;13.95;8.32;;;;;;;9.72;62.29;102856.66;5022905;28;20045;-40
2023/03/03 09:50:33;;;;;;;12.68;7.63;;;;;;;9.46;62.74;102868.41;5027366;28;20334;-40
2023/03/03 09:53:16;;;;;;;11.50;6.85;;;;;;;9.65;62.57;102865.91;5026910;28;21338;-39
2023/03/03 09:56:06;;;;;;;11.27;6.20;;;;;;;9.70;61.77;102859.19;5025550;28;20033;-39
2023/03/03 09:59:03;;;;;;;9.00;5.65;;;;;;;9.95;61.08;102866.47;5027063;28;20124;-40
2023/03/03 10:02:00;;;;;;;10.68;5.82;;;;;;;9.97;61.47;102859.63;5020596;28;20052;-37
2023/03/03 10:05:00;;;;;;;9.80;5.63;;;;;;;10.36;60.17;102867.56;4978153;28;20069;-35
2023/03/03 10:07:42;;;;;;;10.15;5.68;;;;;;;10.64;59.47;102867.97;5023752;28;20399;-38
2023/03/03 10:10:29;;;;;;;10.93;4.97;;;;;;;10.40;59.22;102862.56;5022375;28;20049;-38
2023/03/03 10:13:13;;;;;;;8.80;4.93;;;;;;;10.31;58.76;102863.84;5020464;28;20051;-45
2023/03/03 10:15:46;;;;;;;7.90;4.63;;;;;;;10.67;58.66;102859.41;5023134;28;20057;-45
2023/03/03 10:18:36;;;;;;;7.75;4.90;;;;;;;10.82;57.23;102860.06;5033196;28;20029;-38
2023/03/03 10:21:28;;;;;;;10.30;4.53;;;;;;;10.76;57.37;102867.63;5027465;28;20051;-39
2023/03/03 10:24:04;;;;;;;9.02;4.60;;;;;;;10.83;57.02;102856.66;5029983;28;20040;-40
2023/03/03 10:27:08;;;;;;;9.45;4.72;;;;;;;10.85;56.21;102863.72;5027044;28;20046;-38
2023/03/03 10:29:42;;;;;;;11.93;6.53;;;;;;;11.15;57.74;102853.72;5024637;28;20030;-39
2023/03/03 10:32:47;;;;;;;9.15;6.00;;;;;;;11.22;56.92;102857.47;5024871;28;20040;-39
2023/03/03 10:35:38;;;;;;;10.68;5.50;;;;;;;11.16;56.45;102852.00;5006814;28;20132;-37
2023/03/03 10:38:27;;;;;;;9.20;4.10;;;;;;;10.93;55.66;102857.09;5026667;28;20494;-39
2023/03/03 10:41:27;;;;;;;12.27;4.63;;;;;;;10.11;55.59;102863.78;5025701;28;20040;-41
2023/03/03 10:44:25;;;;;;;7.07;3.60;;;;;;;10.25;55.45;102864.44;5026292;28;20119;-39
2023/03/03 10:46:54;;;;;;;8.18;3.30;;;;;;;10.75;54.50;102868.44;5004179;28;20045;-41
2023/03/03 10:49:38;;;;;;;5.93;3.05;;;;;;;10.41;53.75;102864.34;5028548;28;20120;-38
2023/03/03 10:52:25;;;;;;;6.75;3.35;;;;;;;10.52;54.41;102860.50;5022954;28;20025;-39
2023/03/03 10:55:15;;;;;;;6.43;3.13;;;;;;;10.24;53.39;102865.28;5024908;28;20041;-39
2023/03/03 10:58:15;;;;;;;5.72;3.58;;;;;;;10.80;53.16;102862.63;5028945;28;20108;-39
2023/03/03 11:01:18;;;;;;;8.38;4.30;;;;;;;10.26;55.27;102866.22;5017082;28;20063;-41
2023/03/03 11:04:08;;;;;;;7.80;4.50;;;;;;;10.66;55.11;102866.34;5028417;28;20037;-40
2023/03/03 11:06:52;;;;;;;20.73;5.22;;;;;;;10.39;56.71;102870.31;5025618;28;20049;-39
2023/03/03 11:09:36;;;;;;;10.90;4.53;;;;;;;10.67;55.54;102868.13;5025757;28;20140;-38
2023/03/03 11:12:10;;;;;;;8.27;4.25;;;;;;;10.95;54.45;102860.69;5025985;28;20272;-39
2023/03/03 11:14:55;;;;;;;10.98;5.35;;;;;;;11.15;53.78;102861.56;5028977;28;20036;-40
2023/03/03 11:17:29;;;;;;;;;;;;;;;11.14;53.82;102858.88;5023639;28;20030;-38
2023/03/03 11:20:22;;;;;;;9.38;4.65;;;;;;;11.26;52.79;102856.78;5024085;28;19917;-39
2023/03/03 11:23:34;;;;;;;8.15;4.80;;;;;;;11.38;52.70;102852.97;5024602;28;20091;-40
2023/03/03 11:26:43;;;;;;;10.90;4.70;;;;;;;10.96;54.28;102856.38;5026241;28;20037;-39
2023/03/03 11:29:27;;;;;;;11.73;5.13;;;;;;;11.39;52.10;102848.63;5025392;28;20160;-39
2023/03/03 11:32:01;;;;;;;11.05;5.07;;;;;;;10.69;53.14;102855.13;5025028;28;20040;-38
2023/03/03 11:34:52;;;;;;;8.40;4.93;;;;;;;10.34;54.37;102853.56;5030814;28;20033;-40
2023/03/03 11:37:35;;;;;;;8.70;4.32;;;;;;;11.07;52.17;102851.59;5026261;28;20527;-38
2023/03/03 11:40:11;;;;;;;7.32;4.20;;;;;;;11.15;51.05;102845.88;5031556;28;20092;-40
2023/03/03 11:43:00;;;;;;;7.45;3.13;;;;;;;11.40;49.32;102853.03;5030866;28;20111;-43